createdAt,value
2022-11-07T00:03:45.303Z,24.5
2022-11-07T00:08:47.299Z,26.8
2022-11-07T00:13:49.421Z,27.6
2022-11-07T00:18:51.461Z,27.2
2022-11-07T00:23:53.478Z,27.4
2022-11-07T00:28:55.970Z,27.8
2022-11-07T00:33:58.277Z,28.4
2022-11-07T00:39:00.527Z,30.6
2022-11-07T00:44:02.639Z,30.1
2022-11-07T00:49:04.643Z,31.9
2022-11-07T00:54:06.714Z,31.7
2022-11-07T00:59:08.960Z,31.8
2022-11-07T01:04:11.006Z,32.2
2022-11-07T01:09:13.204Z,31.8
2022-11-07T01:14:15.171Z,29
2022-11-07T01:19:16.084Z,37.9
2022-11-07T01:24:18.242Z,32.8
2022-11-07T01:29:20.330Z,40.1
2022-11-07T01:34:22.417Z,35.2
2022-11-07T01:39:24.738Z,34.5
2022-11-07T01:44:26.642Z,64.9
2022-11-07T01:49:27.173Z,34.3
2022-11-07T01:54:29.097Z,34.3
2022-11-07T01:59:31.124Z,26.4
2022-11-07T02:04:33.725Z,28
2022-11-07T02:09:35.729Z,29.8
2022-11-07T02:14:37.730Z,30.4
2022-11-07T02:19:39.725Z,33.3
2022-11-07T02:24:41.742Z,28.1
2022-11-07T02:29:43.757Z,31.8
2022-11-07T02:34:45.720Z,33.3
2022-11-07T02:39:47.685Z,37.3
2022-11-07T02:44:49.979Z,40.8
2022-11-07T02:49:52.411Z,36.2
2022-11-07T02:54:54.555Z,41.1
2022-11-07T02:59:56.526Z,50.7
2022-11-07T03:04:58.580Z,47.5
2022-11-07T03:10:00.713Z,36.6
2022-11-07T03:15:03.723Z,30.9
2022-11-07T03:20:06.227Z,29.7
2022-11-07T03:25:08.207Z,28.1
2022-11-07T03:30:10.347Z,25.3
2022-11-07T03:35:12.286Z,24.3
2022-11-07T03:40:14.306Z,24.9
2022-11-07T03:45:16.718Z,22.5
2022-11-07T03:50:18.782Z,22.3
2022-11-07T03:55:19.757Z,20.4
2022-11-07T04:00:21.774Z,18.5
2022-11-07T04:05:23.795Z,19.1
2022-11-07T04:10:26.318Z,18.8
2022-11-07T04:15:28.358Z,17.8
2022-11-07T04:20:30.526Z,17.8
2022-11-07T04:25:32.463Z,17.7
2022-11-07T04:30:34.413Z,18.9
2022-11-07T04:35:36.481Z,18.2
2022-11-07T04:40:38.475Z,18.4
2022-11-07T04:45:41.029Z,19.1
2022-11-07T04:50:43.012Z,18.3
2022-11-07T04:55:44.902Z,18.5
2022-11-07T05:00:46.812Z,52.6
2022-11-07T05:05:48.832Z,20
2022-11-07T05:10:50.915Z,18.6
2022-11-07T05:15:52.987Z,18.8
2022-11-07T05:20:55.029Z,19.9
2022-11-07T05:25:56.979Z,21
2022-11-07T05:30:59.014Z,37.1
2022-11-07T05:36:01.005Z,23.1
2022-11-07T05:41:02.986Z,21.8
2022-11-07T05:46:04.989Z,25
2022-11-07T05:51:07.049Z,21.3
2022-11-07T05:56:10.123Z,20.2
2022-11-07T06:01:10.835Z,20
2022-11-07T06:06:12.788Z,21.1
2022-11-07T06:16:17.248Z,20.7
2022-11-07T06:21:19.295Z,22.7
2022-11-07T06:26:21.353Z,20
2022-11-07T06:31:23.429Z,18.4
2022-11-07T06:41:28.856Z,20.5
2022-11-07T06:46:31.454Z,21.3
2022-11-07T06:51:33.491Z,24.2
2022-11-07T06:56:35.724Z,30.9
2022-11-07T07:01:37.780Z,25.9
2022-11-07T07:06:40.626Z,25.9
2022-11-07T07:11:42.583Z,24.8
2022-11-07T07:16:44.998Z,41.7
2022-11-07T07:21:47.236Z,68.2
2022-11-07T07:26:52.244Z,76.5
2022-11-07T07:31:54.270Z,71.3
2022-11-07T07:36:56.222Z,118.4
2022-11-07T07:41:58.488Z,43.9
2022-11-07T07:47:02.617Z,23.6
2022-11-07T07:52:02.591Z,19.9
2022-11-07T07:57:04.489Z,20.2
2022-11-07T08:02:06.528Z,17.9
2022-11-07T08:07:08.846Z,18.8
2022-11-07T08:12:10.754Z,20.3
2022-11-07T08:17:13.904Z,17.8
2022-11-07T08:22:16.045Z,17.5
2022-11-07T08:27:17.970Z,17.9
2022-11-07T08:32:20.143Z,17.8
2022-11-07T08:37:22.199Z,17.8
2022-11-07T08:42:24.444Z,16.3
2022-11-07T08:47:26.533Z,17.5
2022-11-07T08:52:28.691Z,24.9
2022-11-07T08:57:30.682Z,15.7
2022-11-07T09:03:18.240Z,16.4
2022-11-07T09:07:38.266Z,16.4
2022-11-07T09:12:40.215Z,15.5
2022-11-07T09:17:42.283Z,18.2
2022-11-07T09:22:44.603Z,17.8
2022-11-07T09:27:46.474Z,19
2022-11-07T09:32:48.420Z,19.6
2022-11-07T09:37:50.418Z,20.5
2022-11-07T09:42:52.315Z,20.2
2022-11-07T09:47:54.253Z,27.1
2022-11-07T09:52:56.365Z,19.9
2022-11-07T09:57:58.750Z,20.6
2022-11-07T10:03:00.611Z,19.5
2022-11-07T10:08:02.513Z,23.8
2022-11-07T10:13:05.049Z,22.5
2022-11-07T10:18:07.997Z,24
2022-11-07T10:23:10.292Z,22.2
2022-11-07T10:28:12.850Z,23.6
2022-11-07T10:33:15.224Z,24.4
2022-11-07T10:38:18.303Z,27.7
2022-11-07T10:43:20.458Z,24.2
2022-11-07T10:48:22.477Z,25.3
2022-11-07T10:53:24.406Z,27.1
2022-11-07T10:58:26.351Z,25.2
2022-11-07T11:03:36.760Z,25.2
2022-11-07T11:08:37.003Z,26.1
2022-11-07T11:13:38.952Z,30.3
2022-11-07T11:18:41.051Z,28.9
2022-11-07T11:23:43.039Z,23.3
2022-11-07T11:28:45.078Z,26.3
2022-11-07T11:33:47.069Z,22.6
2022-11-07T11:38:48.999Z,21.7
2022-11-07T11:43:50.895Z,23.7
2022-11-07T11:48:53.093Z,23.6
2022-11-07T11:53:55.039Z,24.3
2022-11-07T11:58:57.315Z,25.6
2022-11-07T12:04:01.273Z,23.3
2022-11-07T12:08:59.582Z,43.9
2022-11-07T12:14:00.007Z,22.6
2022-11-07T12:19:01.912Z,22.5
2022-11-07T12:24:03.866Z,22.7
2022-11-07T12:29:06.430Z,22
2022-11-07T12:34:08.413Z,21.3
2022-11-07T12:39:10.420Z,21.1
2022-11-07T12:44:12.309Z,21.9
2022-11-07T12:49:14.421Z,26.1
2022-11-07T12:54:16.833Z,22.2
2022-11-07T12:59:18.824Z,23.2
2022-11-07T13:04:20.750Z,20.8
2022-11-07T13:09:22.809Z,22.3
2022-11-07T13:14:24.854Z,20.4
2022-11-07T13:19:29.309Z,20.5
2022-11-07T13:24:34.910Z,25.3
2022-11-07T13:29:36.841Z,22.9
2022-11-07T13:34:38.915Z,25.3
2022-11-07T13:39:40.929Z,23.1
2022-11-07T13:44:42.869Z,20.2
2022-11-07T13:49:45.241Z,18.4
2022-11-07T13:54:47.469Z,19
2022-11-07T13:59:49.453Z,19.2
2022-11-07T14:05:14.569Z,17.8
2022-11-07T14:09:59.460Z,22.3
2022-11-07T14:15:01.489Z,19.1
2022-11-07T14:20:03.510Z,16.7
2022-11-07T14:25:05.567Z,16.1
2022-11-07T14:30:07.518Z,16
2022-11-07T14:35:09.499Z,13.9
2022-11-07T14:40:11.382Z,16.8
2022-11-07T14:45:13.474Z,17.8
2022-11-07T14:50:15.440Z,17.6
2022-11-07T14:55:17.507Z,18.9
2022-11-07T15:00:19.760Z,23
2022-11-07T15:05:21.888Z,20
2022-11-07T15:10:24.670Z,19.3
2022-11-07T15:15:27.102Z,17.5
2022-11-07T15:20:29.194Z,23
2022-11-07T15:25:31.342Z,23.4
2022-11-07T15:30:33.335Z,23.9
2022-11-07T15:35:43.894Z,22.5
2022-11-07T15:40:36.732Z,25.1
2022-11-07T15:45:38.618Z,28.3
2022-11-07T15:50:40.615Z,38.4
2022-11-07T15:55:42.714Z,27.2
2022-11-07T16:00:44.943Z,26.2
2022-11-07T16:05:47.510Z,29.4
2022-11-07T16:10:55.880Z,27.4
2022-11-07T16:16:05.250Z,27.3
2022-11-07T16:21:11.812Z,28.6
2022-11-07T16:26:13.903Z,30.6
2022-11-07T16:31:15.851Z,32.2
2022-11-07T16:36:17.826Z,33
2022-11-07T16:41:19.773Z,29.5
2022-11-07T16:46:21.864Z,35.2
2022-11-07T16:51:23.826Z,33.6
2022-11-07T16:56:25.857Z,39.9
2022-11-07T17:01:28.069Z,39.3
2022-11-07T17:06:31.165Z,40.8
2022-11-07T17:11:33.371Z,46
2022-11-07T17:16:35.267Z,52.6
2022-11-07T17:21:37.394Z,55.5
2022-11-07T17:26:39.447Z,54.2
2022-11-07T17:31:41.854Z,52.2
2022-11-07T17:36:44.128Z,47.3
2022-11-07T17:41:46.547Z,46.4
2022-11-07T17:46:48.563Z,66
2022-11-07T17:51:50.578Z,63.7
2022-11-07T18:01:55.095Z,52.7
2022-11-07T18:06:58.148Z,52.2
2022-11-07T18:12:00.219Z,52.3
2022-11-07T18:17:02.655Z,50.9
2022-11-07T18:22:05.205Z,49.2
2022-11-07T18:27:10.400Z,48
2022-11-07T18:32:12.943Z,53.2
2022-11-07T18:37:14.944Z,57
2022-11-07T18:42:17.001Z,57.8
2022-11-07T18:47:19.472Z,53.4
2022-11-07T18:52:21.427Z,55.8
2022-11-07T18:57:23.394Z,52.5
2022-11-07T19:02:25.408Z,52.7
2022-11-07T19:07:29.799Z,52.8
2022-11-07T19:12:31.901Z,53.1
2022-11-07T19:17:33.869Z,57.5
2022-11-07T19:22:36.014Z,57.7
2022-11-07T19:27:38.512Z,56.1
2022-11-07T19:32:41.687Z,58
2022-11-07T19:37:47.878Z,57.1
2022-11-07T19:42:50.064Z,57.6
2022-11-07T19:47:52.698Z,59
2022-11-07T19:53:03.354Z,55.5
2022-11-07T19:58:02.362Z,59.3
2022-11-07T20:03:07.201Z,62.7
2022-11-07T20:08:09.809Z,65.2
2022-11-07T20:13:11.958Z,71.1
2022-11-07T20:18:15.957Z,73.3
2022-11-07T20:23:19.689Z,74.6
2022-11-07T20:28:22.786Z,68.7
2022-11-07T20:33:25.027Z,71.9
2022-11-07T20:38:27.393Z,66.1
2022-11-07T20:43:29.537Z,64.9
2022-11-07T20:48:31.703Z,73.6
2022-11-07T20:53:33.858Z,72.4
2022-11-07T20:58:36.382Z,73.4
2022-11-07T21:03:38.471Z,68.7
2022-11-07T21:08:40.631Z,73.2
2022-11-07T21:13:45.475Z,67.2
2022-11-07T21:18:44.585Z,69.1
2022-11-07T21:23:46.655Z,68.1
2022-11-07T21:28:48.740Z,68.9
2022-11-07T21:33:50.792Z,69.6
2022-11-07T21:38:52.967Z,67.7
2022-11-07T21:43:55.055Z,68.3
2022-11-07T21:48:57.234Z,72.4
2022-11-07T21:53:59.316Z,69.8
2022-11-07T21:59:01.404Z,67.9
2022-11-07T22:04:07.171Z,70.2
2022-11-07T22:09:05.417Z,69.9
2022-11-07T22:14:07.524Z,71
2022-11-07T22:19:12.420Z,64.2
2022-11-07T22:24:15.110Z,65.6
2022-11-07T22:29:17.191Z,63.3
2022-11-07T22:34:19.184Z,65.2
2022-11-07T22:39:21.217Z,63.9
2022-11-07T22:44:23.225Z,60.8
2022-11-07T22:49:28.127Z,56.8
2022-11-07T22:54:28.275Z,62.9
2022-11-07T22:59:31.175Z,112.3
2022-11-07T23:04:33.097Z,58.9
2022-11-07T23:09:35.495Z,54.1
2022-11-07T23:14:37.616Z,49.1
2022-11-07T23:19:39.664Z,50
2022-11-07T23:24:42.135Z,48.9
2022-11-07T23:29:44.207Z,50.6
2022-11-07T23:34:46.398Z,67.3
2022-11-07T23:39:48.432Z,43
2022-11-07T23:44:50.614Z,46
2022-11-07T23:49:52.681Z,45.8
2022-11-07T23:54:54.777Z,39.5
2022-11-07T23:59:57.078Z,38.2
